createdAt,value
2017-08-16T00:00:00.027Z,0
2017-08-16T00:01:12.331Z,0
2017-08-16T00:02:24.948Z,0
2017-08-16T00:03:37.513Z,0
2017-08-16T00:04:50.103Z,0
2017-08-16T00:06:02.379Z,0
2017-08-16T00:07:14.030Z,0
2017-08-16T00:08:26.663Z,0
2017-08-16T00:09:39.168Z,0
2017-08-16T00:10:51.774Z,0
2017-08-16T00:12:04.076Z,0
2017-08-16T00:13:16.332Z,0
2017-08-16T00:14:28.631Z,0
2017-08-16T00:15:40.922Z,0
2017-08-16T00:16:53.454Z,0
2017-08-16T00:18:05.721Z,0
2017-08-16T00:19:18.052Z,0
2017-08-16T00:20:30.648Z,0
2017-08-16T00:21:42.926Z,0
2017-08-16T00:22:55.498Z,0
2017-08-16T00:24:07.743Z,0
2017-08-16T00:25:20.325Z,0
2017-08-16T00:26:32.587Z,0
2017-08-16T00:27:44.587Z,0
2017-08-16T00:28:56.826Z,0
2017-08-16T00:30:09.124Z,0
2017-08-16T00:31:21.344Z,0
2017-08-16T00:32:33.906Z,0
2017-08-16T00:33:46.487Z,0
2017-08-16T00:34:58.781Z,0
2017-08-16T00:36:11.381Z,0
2017-08-16T00:37:23.998Z,0
2017-08-16T00:38:36.255Z,0
2017-08-16T00:39:48.540Z,0
2017-08-16T00:41:00.822Z,0
2017-08-16T00:42:13.433Z,0
2017-08-16T00:43:25.431Z,0
2017-08-16T00:44:37.705Z,0
2017-08-16T00:45:49.947Z,0
2017-08-16T00:47:02.492Z,0
2017-08-16T00:48:14.843Z,0
2017-08-16T00:49:27.468Z,0
2017-08-16T00:50:40.059Z,0
2017-08-16T00:51:52.716Z,0
2017-08-16T00:53:05.350Z,0
2017-08-16T00:54:17.927Z,0
2017-08-16T00:55:30.563Z,0
2017-08-16T00:56:42.813Z,0
2017-08-16T00:57:55.401Z,0
2017-08-16T00:59:08.036Z,0
2017-08-16T01:00:20.622Z,0
2017-08-16T01:01:33.142Z,0
2017-08-16T01:02:45.437Z,0
2017-08-16T01:03:57.969Z,0
2017-08-16T01:05:10.590Z,0
2017-08-16T01:06:23.201Z,0
2017-08-16T01:07:35.472Z,0
2017-08-16T01:08:47.674Z,0
2017-08-16T01:10:00.264Z,0
2017-08-16T01:11:12.908Z,0
2017-08-16T01:12:25.204Z,0
2017-08-16T01:13:37.456Z,0
2017-08-16T01:14:49.772Z,0
2017-08-16T01:16:02.342Z,0
2017-08-16T01:17:14.336Z,0
2017-08-16T01:18:26.320Z,0
2017-08-16T01:19:38.636Z,0
2017-08-16T01:20:51.232Z,0
2017-08-16T01:22:03.849Z,0
2017-08-16T01:23:15.850Z,0
2017-08-16T01:24:28.444Z,0
2017-08-16T01:25:40.410Z,0
2017-08-16T01:26:53.048Z,0
2017-08-16T01:28:05.578Z,0
2017-08-16T01:29:17.883Z,0
2017-08-16T01:30:30.455Z,0
2017-08-16T01:31:43.064Z,0
2017-08-16T01:32:55.602Z,0
2017-08-16T01:34:08.243Z,0
2017-08-16T01:35:20.890Z,0
2017-08-16T01:36:33.439Z,0
2017-08-16T01:37:45.451Z,0
2017-08-16T01:38:58.015Z,0
2017-08-16T01:40:10.317Z,0
2017-08-16T01:41:22.882Z,0
2017-08-16T01:42:35.202Z,0
2017-08-16T01:43:47.873Z,0
2017-08-16T01:45:00.454Z,0
2017-08-16T01:46:12.472Z,0
2017-08-16T01:47:25.028Z,0
2017-08-16T01:48:37.608Z,0
2017-08-16T01:49:50.177Z,0
2017-08-16T01:51:02.711Z,0
2017-08-16T01:52:15.319Z,0
2017-08-16T01:53:27.890Z,0
2017-08-16T01:54:39.847Z,0
2017-08-16T01:55:52.463Z,0
2017-08-16T01:57:04.772Z,0
2017-08-16T01:58:16.776Z,0
2017-08-16T01:59:29.412Z,0
2017-08-16T02:00:41.641Z,0
2017-08-16T02:01:54.237Z,0
2017-08-16T02:03:06.839Z,0
2017-08-16T02:04:19.722Z,0
2017-08-16T02:05:32.343Z,0
2017-08-16T02:06:44.016Z,0
2017-08-16T02:07:56.573Z,0
2017-08-16T02:09:09.254Z,0
2017-08-16T02:10:21.485Z,0
2017-08-16T02:11:34.086Z,0
2017-08-16T02:12:46.637Z,0
2017-08-16T02:13:59.249Z,0
2017-08-16T02:15:11.867Z,0
2017-08-16T02:16:24.174Z,0
2017-08-16T02:17:36.452Z,0
2017-08-16T02:18:48.718Z,0
2017-08-16T02:20:00.357Z,0
2017-08-16T02:21:12.324Z,0
2017-08-16T02:22:24.918Z,0
2017-08-16T02:23:37.563Z,0
2017-08-16T02:24:49.532Z,0
2017-08-16T02:26:02.140Z,0
2017-08-16T02:27:14.702Z,0
2017-08-16T02:28:27.272Z,0
2017-08-16T02:29:39.568Z,0
2017-08-16T02:30:52.145Z,0
2017-08-16T02:32:04.778Z,0
2017-08-16T02:33:17.306Z,0
2017-08-16T02:34:29.676Z,0
2017-08-16T02:35:42.259Z,0
2017-08-16T02:36:54.929Z,0
2017-08-16T02:38:07.231Z,0
2017-08-16T02:39:19.235Z,0
2017-08-16T02:40:31.238Z,0
2017-08-16T02:41:43.880Z,0
2017-08-16T02:42:56.474Z,0
2017-08-16T02:44:08.845Z,0
2017-08-16T02:45:21.459Z,0
2017-08-16T02:46:33.769Z,0
2017-08-16T02:47:46.411Z,0
2017-08-16T02:48:59.077Z,0
2017-08-16T02:50:11.699Z,0
2017-08-16T02:51:24.298Z,0
2017-08-16T02:52:36.641Z,0
2017-08-16T02:53:48.922Z,0
2017-08-16T02:55:01.590Z,0
2017-08-16T02:56:14.207Z,0
2017-08-16T02:57:26.806Z,0
2017-08-16T02:58:39.106Z,0
2017-08-16T02:59:51.691Z,0
2017-08-16T03:01:04.049Z,0
2017-08-16T03:02:16.635Z,0
2017-08-16T03:03:29.253Z,0
2017-08-16T03:04:41.602Z,0
2017-08-16T03:05:54.210Z,0
2017-08-16T03:07:06.827Z,0
2017-08-16T03:08:19.390Z,0
2017-08-16T03:09:31.991Z,0
2017-08-16T03:10:44.586Z,0
2017-08-16T03:11:57.155Z,0
2017-08-16T03:13:09.397Z,0
2017-08-16T03:14:21.717Z,4
2017-08-16T03:15:34.069Z,4
2017-08-16T03:16:46.652Z,0
2017-08-16T03:17:58.935Z,4
2017-08-16T03:19:11.512Z,4
2017-08-16T03:20:23.782Z,4
2017-08-16T03:21:36.099Z,8
2017-08-16T03:22:48.624Z,8
2017-08-16T03:24:01.258Z,12
2017-08-16T03:25:13.582Z,12
2017-08-16T03:26:26.133Z,16
2017-08-16T03:27:38.500Z,16
2017-08-16T03:28:51.099Z,20
2017-08-16T03:30:03.406Z,24
2017-08-16T03:31:15.761Z,28
2017-08-16T03:32:28.317Z,32
2017-08-16T03:33:40.684Z,36
2017-08-16T03:34:52.975Z,44
2017-08-16T03:36:05.793Z,48
2017-08-16T03:37:17.739Z,56
2017-08-16T03:38:29.684Z,68
2017-08-16T03:39:42.289Z,72
2017-08-16T03:40:54.862Z,80
2017-08-16T03:42:07.148Z,92
2017-08-16T03:43:19.462Z,112
2017-08-16T03:44:31.716Z,132
2017-08-16T03:45:44.329Z,152
2017-08-16T03:46:56.934Z,168
2017-08-16T03:48:09.577Z,192
2017-08-16T03:49:22.156Z,208
2017-08-16T03:50:34.427Z,224
2017-08-16T03:51:46.719Z,236
2017-08-16T03:52:59.022Z,256
2017-08-16T03:54:11.633Z,284
2017-08-16T03:55:24.245Z,312
2017-08-16T03:56:36.538Z,344
2017-08-16T03:57:48.569Z,384
2017-08-16T03:59:01.172Z,428
2017-08-16T04:00:13.088Z,480
2017-08-16T04:01:25.715Z,536
2017-08-16T04:02:38.022Z,600
2017-08-16T04:03:50.332Z,672
2017-08-16T04:05:02.931Z,744
2017-08-16T04:06:15.223Z,796
2017-08-16T04:07:27.499Z,816
2017-08-16T04:08:40.111Z,824
2017-08-16T04:09:52.355Z,848
2017-08-16T04:11:04.926Z,872
2017-08-16T04:12:17.521Z,864
2017-08-16T04:13:30.128Z,860
2017-08-16T04:14:42.724Z,860
2017-08-16T04:15:55.049Z,880
2017-08-16T04:17:07.406Z,920
2017-08-16T04:18:19.985Z,976
2017-08-16T04:19:32.232Z,1032
2017-08-16T04:20:44.524Z,1076
2017-08-16T04:21:57.065Z,1112
2017-08-16T04:23:09.662Z,1156
2017-08-16T04:24:22.214Z,1232
2017-08-16T04:25:34.494Z,1324
2017-08-16T04:26:47.022Z,1412
2017-08-16T04:27:59.543Z,1504
2017-08-16T04:29:11.538Z,1604
2017-08-16T04:30:24.136Z,1716
2017-08-16T04:31:36.695Z,1824
2017-08-16T04:32:49.308Z,1852
2017-08-16T04:34:01.601Z,1804
2017-08-16T04:35:13.585Z,1724
2017-08-16T04:36:25.851Z,1632
2017-08-16T04:37:37.871Z,1568
2017-08-16T04:38:50.475Z,1552
2017-08-16T04:40:03.051Z,1588
2017-08-16T04:41:15.354Z,1656
2017-08-16T04:42:27.945Z,1736
2017-08-16T04:43:40.247Z,1864
2017-08-16T04:44:52.546Z,2064
2017-08-16T04:46:05.166Z,2316
2017-08-16T04:47:17.482Z,2584
2017-08-16T04:48:29.774Z,2832
2017-08-16T04:49:42.398Z,3044
2017-08-16T04:50:55.024Z,3200
2017-08-16T04:52:07.296Z,3288
2017-08-16T04:53:19.310Z,3360
2017-08-16T04:54:31.578Z,3476
2017-08-16T04:55:44.100Z,3652
2017-08-16T04:56:56.675Z,3820
2017-08-16T04:58:09.199Z,3880
2017-08-16T04:59:21.818Z,3876
2017-08-16T05:00:34.148Z,3956
2017-08-16T05:01:46.460Z,4084
2017-08-16T05:02:58.712Z,4224
2017-08-16T05:04:11.270Z,4324
2017-08-16T05:05:23.547Z,4416
2017-08-16T05:06:35.536Z,4496
2017-08-16T05:07:47.172Z,4568
2017-08-16T05:08:59.741Z,4624
2017-08-16T05:10:12.055Z,4676
2017-08-16T05:11:24.602Z,4708
2017-08-16T05:12:36.918Z,4676
2017-08-16T05:13:49.798Z,4544
2017-08-16T05:15:02.371Z,4300
2017-08-16T05:16:14.668Z,3960
2017-08-16T05:17:27.262Z,3696
2017-08-16T05:18:39.540Z,3532
2017-08-16T05:19:51.846Z,3448
2017-08-16T05:21:03.788Z,3416
2017-08-16T05:22:16.360Z,3372
2017-08-16T05:23:28.924Z,3360
2017-08-16T05:24:41.425Z,3436
2017-08-16T05:25:54.047Z,3612
2017-08-16T05:27:06.576Z,3836
2017-08-16T05:28:18.839Z,4036
2017-08-16T05:29:31.462Z,4204
2017-08-16T05:30:44.078Z,4424
2017-08-16T05:31:56.689Z,4736
2017-08-16T05:33:09.279Z,5088
2017-08-16T05:34:20.935Z,5336
2017-08-16T05:35:33.514Z,5504
2017-08-16T05:36:46.153Z,5688
2017-08-16T05:37:58.757Z,5848
2017-08-16T05:39:11.384Z,5992
2017-08-16T05:40:23.679Z,6116
2017-08-16T05:41:36.569Z,6160
2017-08-16T05:42:49.090Z,6180
2017-08-16T05:44:01.688Z,6168
2017-08-16T05:45:14.207Z,6180
2017-08-16T05:46:26.728Z,6188
2017-08-16T05:47:39.348Z,6132
2017-08-16T05:48:51.950Z,5980
2017-08-16T05:50:03.918Z,5776
2017-08-16T05:51:16.228Z,5608
2017-08-16T05:52:28.519Z,5432
2017-08-16T05:53:41.146Z,5244
2017-08-16T05:54:53.772Z,5044
2017-08-16T05:56:06.361Z,4808
2017-08-16T05:57:18.672Z,4628
2017-08-16T05:58:30.990Z,4500
2017-08-16T05:59:42.957Z,4368
2017-08-16T06:00:54.640Z,4244
2017-08-16T06:02:06.976Z,4188
2017-08-16T06:03:19.299Z,4212
2017-08-16T06:04:31.252Z,4284
2017-08-16T06:05:43.563Z,4372
2017-08-16T06:06:56.115Z,4432
2017-08-16T06:08:08.989Z,4404
2017-08-16T06:09:21.249Z,4304
2017-08-16T06:10:33.276Z,4164
2017-08-16T06:11:45.850Z,4076
2017-08-16T06:12:58.117Z,4072
2017-08-16T06:14:10.683Z,4140
2017-08-16T06:15:23.256Z,4216
2017-08-16T06:16:35.493Z,4252
2017-08-16T06:17:47.797Z,4276
2017-08-16T06:19:00.544Z,4296
2017-08-16T06:20:13.170Z,4328
2017-08-16T06:21:25.765Z,4364
2017-08-16T06:22:37.706Z,4368
2017-08-16T06:23:50.256Z,4320
2017-08-16T06:25:02.247Z,4264
2017-08-16T06:26:14.241Z,4216
2017-08-16T06:27:26.823Z,4200
2017-08-16T06:28:39.158Z,4164
2017-08-16T06:29:51.833Z,4088
2017-08-16T06:31:04.465Z,3980
2017-08-16T06:32:17.079Z,3856
2017-08-16T06:33:29.376Z,3756
2017-08-16T06:34:41.614Z,3712
2017-08-16T06:35:53.909Z,3780
2017-08-16T06:37:06.200Z,3936
2017-08-16T06:38:18.458Z,4104
2017-08-16T06:39:31.011Z,4224
2017-08-16T06:40:43.847Z,4268
2017-08-16T06:41:56.130Z,4272
2017-08-16T06:43:08.725Z,4228
2017-08-16T06:44:21.330Z,4196
2017-08-16T06:45:33.916Z,4176
2017-08-16T06:46:46.522Z,4232
2017-08-16T06:47:58.813Z,4372
2017-08-16T06:49:11.441Z,4548
2017-08-16T06:50:23.693Z,4700
2017-08-16T06:51:36.363Z,4800
2017-08-16T06:52:48.957Z,4852
2017-08-16T06:54:01.273Z,4864
2017-08-16T06:55:13.269Z,4848
2017-08-16T06:56:25.817Z,4768
2017-08-16T06:57:38.075Z,4660
2017-08-16T06:58:50.733Z,4528
2017-08-16T07:00:03.338Z,4420
2017-08-16T07:01:15.308Z,4348
2017-08-16T07:02:27.894Z,4304
2017-08-16T07:03:40.140Z,4252
2017-08-16T07:04:52.411Z,4180
2017-08-16T07:06:04.995Z,4116
2017-08-16T07:07:17.006Z,4052
2017-08-16T07:08:29.275Z,3996
2017-08-16T07:09:41.902Z,3924
2017-08-16T07:10:54.472Z,3888
2017-08-16T07:12:07.044Z,3952
2017-08-16T07:13:18.714Z,4068
2017-08-16T07:14:30.672Z,4120
2017-08-16T07:15:42.962Z,4056
2017-08-16T07:16:55.239Z,3968
2017-08-16T07:18:07.446Z,4068
2017-08-16T07:19:19.664Z,4212
2017-08-16T07:20:32.236Z,4308
2017-08-16T07:21:44.865Z,4320
2017-08-16T07:22:57.131Z,4292
2017-08-16T07:24:09.696Z,4260
2017-08-16T07:25:21.970Z,4240
2017-08-16T07:26:34.256Z,4200
2017-08-16T07:27:46.824Z,4136
2017-08-16T07:28:59.135Z,4192
2017-08-16T07:30:11.737Z,4136
2017-08-16T07:31:24.382Z,4048
2017-08-16T07:32:36.696Z,4008
2017-08-16T07:33:49.300Z,3888
2017-08-16T07:35:01.935Z,3872
2017-08-16T07:36:14.209Z,3664
2017-08-16T07:37:26.576Z,3312
2017-08-16T07:38:38.510Z,3008
2017-08-16T07:39:50.832Z,2736
2017-08-16T07:41:03.440Z,2460
2017-08-16T07:42:16.010Z,2128
2017-08-16T07:43:28.256Z,1768
2017-08-16T07:44:40.902Z,1424
2017-08-16T07:45:52.897Z,1172
2017-08-16T07:47:04.900Z,1000
2017-08-16T07:48:17.167Z,900
2017-08-16T07:49:29.172Z,796
2017-08-16T07:50:41.508Z,776
2017-08-16T07:51:54.128Z,844
2017-08-16T07:53:06.780Z,856
2017-08-16T07:54:18.725Z,1080
2017-08-16T07:55:30.998Z,1652
2017-08-16T07:56:43.311Z,2100
2017-08-16T07:57:55.565Z,1964
2017-08-16T07:59:08.203Z,1748
2017-08-16T08:00:20.752Z,1972
2017-08-16T08:01:33.306Z,2288
2017-08-16T08:02:45.902Z,1464
2017-08-16T08:03:58.518Z,1036
2017-08-16T08:05:11.136Z,1172
2017-08-16T08:06:23.403Z,1620
2017-08-16T08:07:35.703Z,1892
2017-08-16T08:08:48.088Z,2000
2017-08-16T08:10:00.709Z,1960
2017-08-16T08:11:12.686Z,2000
2017-08-16T08:12:25.264Z,2232
2017-08-16T08:13:37.906Z,2520
2017-08-16T08:14:49.850Z,2244
2017-08-16T08:16:02.421Z,2196
2017-08-16T08:17:14.666Z,2284
2017-08-16T08:18:26.617Z,2340
2017-08-16T08:19:39.192Z,2388
2017-08-16T08:20:51.454Z,2620
2017-08-16T08:22:03.425Z,2688
2017-08-16T08:23:15.976Z,2868
2017-08-16T08:24:28.243Z,3300
2017-08-16T08:25:40.292Z,3640
2017-08-16T08:26:52.565Z,3792
2017-08-16T08:28:04.857Z,3708
2017-08-16T08:29:17.402Z,4236
2017-08-16T08:30:29.672Z,4568
2017-08-16T08:31:42.254Z,4580
2017-08-16T08:32:54.838Z,4520
2017-08-16T08:34:06.760Z,4492
2017-08-16T08:35:18.710Z,4548
2017-08-16T08:36:30.402Z,4524
2017-08-16T08:37:42.990Z,4736
2017-08-16T08:38:55.274Z,4924
2017-08-16T08:40:07.518Z,4860
2017-08-16T08:41:19.746Z,4932
2017-08-16T08:42:31.758Z,5080
2017-08-16T08:43:44.363Z,5056
2017-08-16T08:44:57.025Z,5188
2017-08-16T08:46:09.316Z,5196
2017-08-16T08:47:21.865Z,5172
2017-08-16T08:48:33.852Z,5008
2017-08-16T08:49:46.132Z,4848
2017-08-16T08:50:58.710Z,4640
2017-08-16T08:52:11.024Z,4644
2017-08-16T08:53:22.682Z,4404
2017-08-16T08:54:34.724Z,4388
2017-08-16T08:55:46.978Z,4492
2017-08-16T08:56:59.575Z,4624
2017-08-16T08:58:11.531Z,4344
2017-08-16T08:59:23.808Z,4328
2017-08-16T09:00:35.802Z,4352
2017-08-16T09:01:48.016Z,4064
2017-08-16T09:02:59.994Z,4160
2017-08-16T09:04:12.269Z,4444
2017-08-16T09:05:24.890Z,4424
2017-08-16T09:06:37.157Z,4476
2017-08-16T09:07:49.751Z,4284
2017-08-16T09:09:02.317Z,4540
2017-08-16T09:10:14.869Z,4544
2017-08-16T09:11:27.512Z,4924
2017-08-16T09:12:39.779Z,5084
2017-08-16T09:13:52.065Z,4888
2017-08-16T09:15:04.663Z,5224
2017-08-16T09:16:16.958Z,5320
2017-08-16T09:17:28.904Z,5264
2017-08-16T09:18:40.572Z,5228
2017-08-16T09:19:52.530Z,5144
2017-08-16T09:21:04.832Z,5016
2017-08-16T09:22:17.407Z,4880
2017-08-16T09:23:30.025Z,4688
2017-08-16T09:24:42.265Z,4484
2017-08-16T09:25:54.271Z,4580
2017-08-16T09:27:06.589Z,4712
2017-08-16T09:28:18.875Z,4804
2017-08-16T09:29:31.503Z,4884
2017-08-16T09:30:43.523Z,5052
2017-08-16T09:31:55.850Z,5344
2017-08-16T09:33:08.109Z,5724
2017-08-16T09:34:20.071Z,6164
2017-08-16T09:35:32.708Z,6632
2017-08-16T09:36:44.375Z,7104
2017-08-16T09:37:56.894Z,7596
2017-08-16T09:39:08.864Z,8184
2017-08-16T09:40:21.153Z,8944
2017-08-16T09:41:33.704Z,9472
2017-08-16T09:42:45.743Z,10148
2017-08-16T09:43:58.373Z,11436
2017-08-16T09:45:10.377Z,12716
2017-08-16T09:46:22.676Z,13368
2017-08-16T09:47:35.053Z,13964
2017-08-16T09:48:47.660Z,14644
2017-08-16T09:49:59.971Z,15312
2017-08-16T09:51:12.537Z,15832
2017-08-16T09:52:24.875Z,15908
2017-08-16T09:53:37.159Z,16172
2017-08-16T09:54:49.743Z,16316
2017-08-16T09:56:02.334Z,16444
2017-08-16T09:57:14.927Z,16620
2017-08-16T09:58:27.175Z,16136
2017-08-16T09:59:39.146Z,14784
2017-08-16T10:00:50.493Z,13280
2017-08-16T10:02:02.687Z,12116
2017-08-16T10:03:14.957Z,11636
2017-08-16T10:04:27.489Z,12072
2017-08-16T10:05:39.500Z,12580
2017-08-16T10:06:52.052Z,12684
2017-08-16T10:08:04.045Z,11688
2017-08-16T10:09:16.563Z,9928
2017-08-16T10:10:28.809Z,9052
2017-08-16T10:11:41.397Z,10000
2017-08-16T10:12:53.975Z,10056
2017-08-16T10:14:05.971Z,8548
2017-08-16T10:15:18.244Z,7276
2017-08-16T10:16:30.878Z,7976
2017-08-16T10:17:43.470Z,10560
2017-08-16T10:18:55.755Z,11192
2017-08-16T10:20:08.312Z,9908
2017-08-16T10:21:20.657Z,8192
2017-08-16T10:22:32.973Z,7560
2017-08-16T10:23:44.938Z,8496
2017-08-16T10:24:57.213Z,10668
2017-08-16T10:26:09.922Z,10652
2017-08-16T10:27:22.512Z,8920
2017-08-16T10:28:35.103Z,6944
2017-08-16T10:29:47.379Z,5912
2017-08-16T10:30:59.692Z,6068
2017-08-16T10:32:12.313Z,6784
2017-08-16T10:33:24.325Z,7100
2017-08-16T10:34:36.051Z,7656
2017-08-16T10:35:48.390Z,9048
2017-08-16T10:37:00.371Z,11836
2017-08-16T10:38:12.940Z,15092
2017-08-16T10:39:25.435Z,16800
2017-08-16T10:40:38.056Z,16220
2017-08-16T10:41:50.360Z,13512
2017-08-16T10:43:02.975Z,11388
2017-08-16T10:44:15.595Z,11944
2017-08-16T10:45:27.824Z,14240
2017-08-16T10:46:40.519Z,14588
2017-08-16T10:47:53.133Z,13464
2017-08-16T10:49:05.095Z,11504
2017-08-16T10:50:17.729Z,11196
2017-08-16T10:51:30.273Z,13240
2017-08-16T10:52:42.868Z,15664
2017-08-16T10:53:55.465Z,16660
2017-08-16T10:55:07.684Z,17824
2017-08-16T10:56:20.351Z,18496
2017-08-16T10:57:32.951Z,18720
2017-08-16T10:58:45.587Z,16276
2017-08-16T10:59:57.877Z,21984
2017-08-16T11:01:10.192Z,25856
2017-08-16T11:02:22.512Z,27552
2017-08-16T11:03:34.784Z,28768
2017-08-16T11:04:47.402Z,31264
2017-08-16T11:05:59.971Z,35584
2017-08-16T11:07:11.953Z,38688
2017-08-16T11:08:24.215Z,41152
2017-08-16T11:09:36.190Z,47840
2017-08-16T11:10:48.853Z,74144
2017-08-16T11:12:00.760Z,41152
2017-08-16T11:13:12.756Z,60352
2017-08-16T11:14:25.358Z,58912
2017-08-16T11:15:37.905Z,47648
2017-08-16T11:16:50.489Z,41376
2017-08-16T11:18:03.115Z,23136
2017-08-16T11:19:15.733Z,25920
2017-08-16T11:20:28.007Z,29120
2017-08-16T11:21:40.298Z,37760
2017-08-16T11:22:52.620Z,60704
2017-08-16T11:24:04.890Z,29760
2017-08-16T11:25:17.489Z,35072
2017-08-16T11:26:29.803Z,39424
2017-08-16T11:27:41.823Z,47648
2017-08-16T11:28:54.404Z,85760
2017-08-16T11:30:06.724Z,49056
2017-08-16T11:31:19.335Z,57760
2017-08-16T11:32:31.948Z,73696
2017-08-16T11:33:44.262Z,30816
2017-08-16T11:34:56.874Z,28896
2017-08-16T11:36:09.148Z,35872
2017-08-16T11:37:21.457Z,28704
2017-08-16T11:38:33.793Z,30432
2017-08-16T11:39:46.438Z,74560
2017-08-16T11:40:57.833Z,49248
2017-08-16T11:42:10.449Z,70592
2017-08-16T11:43:23.036Z,71456
2017-08-16T11:44:34.966Z,74624
2017-08-16T11:45:47.535Z,69984
2017-08-16T11:47:00.174Z,68672
2017-08-16T11:48:12.760Z,47456
2017-08-16T11:49:25.360Z,47168
2017-08-16T11:50:37.647Z,75264
2017-08-16T11:51:49.645Z,73728
2017-08-16T11:53:01.936Z,74560
2017-08-16T11:54:14.238Z,74944
2017-08-16T11:55:26.615Z,74528
2017-08-16T11:56:38.351Z,71328
2017-08-16T11:57:50.963Z,59840
2017-08-16T11:59:03.572Z,43680
2017-08-16T12:00:16.148Z,35424
2017-08-16T12:01:28.149Z,39584
2017-08-16T12:02:40.121Z,38336
2017-08-16T12:03:52.438Z,59296
2017-08-16T12:05:04.727Z,35232
2017-08-16T12:06:17.052Z,44160
2017-08-16T12:07:29.380Z,43648
2017-08-16T12:08:41.362Z,72896
2017-08-16T12:09:53.673Z,50912
2017-08-16T12:11:05.651Z,28608
2017-08-16T12:12:17.672Z,24032
2017-08-16T12:13:29.960Z,19712
2017-08-16T12:14:42.563Z,17696
2017-08-16T12:15:55.137Z,15240
2017-08-16T12:17:07.755Z,14992
2017-08-16T12:18:20.326Z,16368
2017-08-16T12:19:32.974Z,16208
2017-08-16T12:20:45.219Z,15920
2017-08-16T12:21:57.470Z,20800
2017-08-16T12:23:10.157Z,53216
2017-08-16T12:24:21.842Z,25728
2017-08-16T12:25:33.559Z,22464
2017-08-16T12:26:46.102Z,22336
2017-08-16T12:27:58.316Z,24992
2017-08-16T12:29:10.574Z,23296
2017-08-16T12:30:22.246Z,28128
2017-08-16T12:31:34.262Z,28320
2017-08-16T12:32:46.531Z,26048
2017-08-16T12:33:58.484Z,43712
2017-08-16T12:35:10.836Z,56000
2017-08-16T12:36:23.456Z,32448
2017-08-16T12:37:35.128Z,65728
2017-08-16T12:38:47.410Z,49152
2017-08-16T12:39:59.714Z,61888
2017-08-16T12:41:12.327Z,64288
2017-08-16T12:42:24.598Z,51328
2017-08-16T12:43:37.240Z,57696
2017-08-16T12:44:49.796Z,60512
2017-08-16T12:46:02.138Z,60352
2017-08-16T12:47:14.778Z,60352
2017-08-16T12:48:26.797Z,60032
2017-08-16T12:49:39.050Z,57312
2017-08-16T12:50:51.364Z,60128
2017-08-16T12:52:03.686Z,33888
2017-08-16T12:53:15.631Z,50336
2017-08-16T12:54:27.009Z,51648
2017-08-16T12:55:39.293Z,61600
2017-08-16T12:56:51.839Z,59488
2017-08-16T12:58:04.422Z,58368
2017-08-16T12:59:16.743Z,54240
2017-08-16T13:00:29.367Z,51200
2017-08-16T13:01:41.710Z,53344
2017-08-16T13:02:53.667Z,55328
2017-08-16T13:04:05.698Z,55840
2017-08-16T13:05:17.102Z,47328
2017-08-16T13:06:29.728Z,56224
2017-08-16T13:07:41.744Z,40864
2017-08-16T13:08:53.740Z,27744
2017-08-16T13:10:06.093Z,44256
2017-08-16T13:11:17.474Z,39392
2017-08-16T13:12:29.740Z,29248
2017-08-16T13:13:42.049Z,34560
2017-08-16T13:14:54.765Z,33824
2017-08-16T13:16:07.372Z,48960
2017-08-16T13:17:19.692Z,41760
2017-08-16T13:18:32.332Z,50944
2017-08-16T13:19:44.292Z,29600
2017-08-16T13:20:56.856Z,56096
2017-08-16T13:22:09.434Z,53888
2017-08-16T13:23:21.442Z,51072
2017-08-16T13:24:33.752Z,49632
2017-08-16T13:25:46.358Z,25792
2017-08-16T13:26:58.945Z,26080
2017-08-16T13:28:11.594Z,23840
2017-08-16T13:29:23.292Z,23872
2017-08-16T13:30:35.566Z,28288
2017-08-16T13:31:47.827Z,30560
2017-08-16T13:32:59.855Z,27968
2017-08-16T13:34:12.145Z,28992
2017-08-16T13:35:24.145Z,29376
2017-08-16T13:36:36.472Z,28672
2017-08-16T13:37:48.774Z,24192
2017-08-16T13:39:00.776Z,38912
2017-08-16T13:40:12.728Z,46720
2017-08-16T13:41:25.344Z,45920
2017-08-16T13:42:37.618Z,41280
2017-08-16T13:43:50.204Z,40448
2017-08-16T13:45:02.457Z,24352
2017-08-16T13:46:14.511Z,22464
2017-08-16T13:47:27.156Z,28288
2017-08-16T13:48:39.732Z,18144
2017-08-16T13:49:52.377Z,12404
2017-08-16T13:51:05.060Z,13708
2017-08-16T13:52:17.337Z,36448
2017-08-16T13:53:29.884Z,29120
2017-08-16T13:54:42.252Z,14396
2017-08-16T13:55:54.279Z,14200
2017-08-16T13:57:06.591Z,15300
2017-08-16T13:58:18.822Z,16344
2017-08-16T13:59:31.165Z,17656
2017-08-16T14:00:43.507Z,19968
2017-08-16T14:01:55.510Z,23040
2017-08-16T14:03:07.796Z,20928
2017-08-16T14:04:20.094Z,20704
2017-08-16T14:05:32.693Z,20192
2017-08-16T14:06:44.940Z,19776
2017-08-16T14:07:57.512Z,21792
2017-08-16T14:09:09.875Z,21888
2017-08-16T14:10:21.847Z,20128
2017-08-16T14:11:33.518Z,18976
2017-08-16T14:12:45.226Z,13612
2017-08-16T14:13:57.863Z,13204
2017-08-16T14:15:09.862Z,13756
2017-08-16T14:16:22.512Z,12228
2017-08-16T14:17:34.546Z,12592
2017-08-16T14:18:47.166Z,11040
2017-08-16T14:19:59.546Z,10280
2017-08-16T14:21:12.092Z,10348
2017-08-16T14:22:24.366Z,10136
2017-08-16T14:23:36.651Z,9948
2017-08-16T14:24:49.200Z,9836
2017-08-16T14:26:01.469Z,9100
2017-08-16T14:27:13.466Z,8784
2017-08-16T14:28:25.440Z,9952
2017-08-16T14:29:37.748Z,11872
2017-08-16T14:30:50.345Z,13400
2017-08-16T14:32:02.980Z,13844
2017-08-16T14:33:15.322Z,13264
2017-08-16T14:34:27.314Z,12112
2017-08-16T14:35:39.959Z,11952
2017-08-16T14:36:51.931Z,11552
2017-08-16T14:38:04.507Z,11376
2017-08-16T14:39:16.521Z,11132
2017-08-16T14:40:28.522Z,10956
2017-08-16T14:41:40.871Z,10708
2017-08-16T14:42:53.173Z,10464
2017-08-16T14:44:05.825Z,10268
2017-08-16T14:45:18.135Z,10220
2017-08-16T14:46:30.447Z,9976
2017-08-16T14:47:42.802Z,10000
2017-08-16T14:48:55.379Z,9840
2017-08-16T14:50:08.013Z,9796
2017-08-16T14:51:19.393Z,9824
2017-08-16T14:52:31.978Z,9728
2017-08-16T14:53:44.586Z,9556
2017-08-16T14:54:57.198Z,9412
2017-08-16T14:56:09.467Z,9348
2017-08-16T14:57:21.437Z,9396
2017-08-16T14:58:33.695Z,9400
2017-08-16T14:59:45.989Z,9344
2017-08-16T15:00:58.256Z,9212
2017-08-16T15:02:10.561Z,9060
2017-08-16T15:03:22.586Z,8880
2017-08-16T15:04:34.244Z,8772
2017-08-16T15:05:46.920Z,8612
2017-08-16T15:06:59.540Z,8464
2017-08-16T15:08:11.508Z,8340
2017-08-16T15:09:24.132Z,8364
2017-08-16T15:10:36.448Z,8440
2017-08-16T15:11:48.166Z,8524
2017-08-16T15:13:00.760Z,8404
2017-08-16T15:14:13.332Z,8328
2017-08-16T15:15:25.284Z,8228
2017-08-16T15:16:37.655Z,8096
2017-08-16T15:17:50.271Z,8024
2017-08-16T15:19:02.623Z,7956
2017-08-16T15:20:15.263Z,7964
2017-08-16T15:21:27.761Z,8020
2017-08-16T15:22:39.427Z,8064
2017-08-16T15:23:52.027Z,8100
2017-08-16T15:25:04.660Z,8064
2017-08-16T15:26:16.993Z,7840
2017-08-16T15:27:29.560Z,7888
2017-08-16T15:28:41.548Z,7944
2017-08-16T15:29:53.829Z,8012
2017-08-16T15:31:06.482Z,7928
2017-08-16T15:32:18.522Z,7732
2017-08-16T15:33:31.100Z,7560
2017-08-16T15:34:43.097Z,7448
2017-08-16T15:35:55.435Z,7392
2017-08-16T15:37:08.004Z,7400
2017-08-16T15:38:20.285Z,7500
2017-08-16T15:39:32.344Z,7612
2017-08-16T15:40:44.567Z,7736
2017-08-16T15:41:56.812Z,7820
2017-08-16T15:43:09.729Z,7788
2017-08-16T15:44:21.739Z,7808
2017-08-16T15:45:34.079Z,7900
2017-08-16T15:46:46.652Z,8092
2017-08-16T15:47:59.277Z,8328
2017-08-16T15:49:11.886Z,8448
2017-08-16T15:50:24.202Z,8408
2017-08-16T15:51:36.472Z,8116
2017-08-16T15:52:49.092Z,7892
2017-08-16T15:54:01.394Z,7880
2017-08-16T15:55:13.696Z,8012
2017-08-16T15:56:26.324Z,8120
2017-08-16T15:57:38.944Z,8124
2017-08-16T15:58:50.979Z,8028
2017-08-16T16:00:03.538Z,7948
2017-08-16T16:01:16.196Z,7860
2017-08-16T16:02:28.775Z,7704
2017-08-16T16:03:41.405Z,7668
2017-08-16T16:04:53.391Z,7788
2017-08-16T16:06:05.655Z,7864
2017-08-16T16:07:17.332Z,8136
2017-08-16T16:08:30.008Z,8656
2017-08-16T16:09:42.616Z,8996
2017-08-16T16:10:55.224Z,9088
2017-08-16T16:12:07.536Z,9232
2017-08-16T16:13:19.621Z,9528
2017-08-16T16:14:31.902Z,9828
2017-08-16T16:15:44.454Z,9876